Time;durP1;ratioP1;P1;durP2;ratioP2;P2;SDS_P1;SDS_P2;PMS_P1;PMS_P2;Temp;Humidity;BMP_temperature;BMP_pressure;BME280_temperature;BME280_humidity;BME280_pressure;Samples;Min_cycle;Max_cycle;Signal;HPM_P1;HPM_P2
2022/04/30 00:02:12;;;;;;;9.87;4.70;;;;;;;;;;5060732;28;20641;-66
2022/04/30 00:04:40;;;;;;;10.57;4.53;;;;;;;;;;5063436;28;20177;-66
2022/04/30 00:07:06;;;;;;;15.07;4.90;;;;;;;;;;5056139;28;20312;-66
2022/04/30 00:09:32;;;;;;;6.93;4.30;;;;;;;;;;5068640;28;20185;-67
2022/04/30 00:11:58;;;;;;;9.00;5.13;;;;;;;;;;5065082;28;20177;-67
2022/04/30 00:14:25;;;;;;;9.43;4.73;;;;;;;;;;5062103;28;20195;-67
2022/04/30 00:16:50;;;;;;;8.90;4.73;;;;;;;;;;5068202;28;20488;-66
2022/04/30 00:19:15;;;;;;;10.60;5.07;;;;;;;;;;5068956;28;20199;-66
2022/04/30 00:21:41;;;;;;;7.80;4.63;;;;;;;;;;5062134;28;20224;-67
2022/04/30 00:24:07;;;;;;;13.53;5.90;;;;;;;;;;5066336;28;20692;-67
2022/04/30 00:26:33;;;;;;;10.67;5.00;;;;;;;;;;5056615;28;20192;-66
2022/04/30 00:28:58;;;;;;;14.77;5.10;;;;;;;;;;5067378;28;20177;-65
2022/04/30 00:31:25;;;;;;;13.43;5.83;;;;;;;;;;5068081;28;20204;-66
2022/04/30 00:33:51;;;;;;;11.30;5.33;;;;;;;;;;5061825;28;20180;-66
2022/04/30 00:36:16;;;;;;;10.83;5.50;;;;;;;;;;5069886;28;20509;-66
2022/04/30 00:38:42;;;;;;;12.17;5.17;;;;;;;;;;5062769;28;20185;-66
2022/04/30 00:41:08;;;;;;;11.60;5.13;;;;;;;;;;5064403;28;20732;-66
2022/04/30 00:43:47;;;;;;;12.07;6.17;;;;;;;;;;5066484;28;20219;-67
2022/04/30 00:46:17;;;;;;;10.70;6.07;;;;;;;;;;5066273;28;20230;-67
2022/04/30 00:48:45;;;;;;;14.03;6.50;;;;;;;;;;5077712;28;20181;-66
2022/04/30 00:51:16;;;;;;;12.70;6.20;;;;;;;;;;5068609;28;20204;-66
2022/04/30 00:53:44;;;;;;;10.27;6.23;;;;;;;;;;5059200;28;20521;-66
2022/04/30 00:56:12;;;;;;;15.60;5.60;;;;;;;;;;5069821;28;20184;-66
2022/04/30 00:58:42;;;;;;;12.47;5.57;;;;;;;;;;5064532;28;20212;-66
2022/04/30 01:01:08;;;;;;;12.93;6.50;;;;;;;;;;5068528;28;20219;-67
2022/04/30 01:03:33;;;;;;;14.40;6.63;;;;;;;;;;5067469;28;20450;-67
2022/04/30 01:06:00;;;;;;;12.03;5.87;;;;;;;;;;5064698;28;20184;-67
2022/04/30 01:08:28;;;;;;;12.90;6.00;;;;;;;;;;5066279;28;20222;-67
2022/04/30 01:11:00;;;;;;;16.07;6.30;;;;;;;;;;5059236;28;20177;-67
2022/04/30 01:13:26;;;;;;;9.30;6.40;;;;;;;;;;5065372;28;20181;-67
2022/04/30 01:15:51;;;;;;;11.70;5.93;;;;;;;;;;5064436;28;20180;-67
2022/04/30 01:18:17;;;;;;;16.03;6.33;;;;;;;;;;5060699;28;20212;-67
2022/04/30 01:20:51;;;;;;;10.93;6.67;;;;;;;;;;5066758;28;20208;-66
2022/04/30 01:23:17;;;;;;;12.10;6.67;;;;;;;;;;5067251;28;20189;-66
2022/04/30 01:25:46;;;;;;;13.77;6.43;;;;;;;;;;5057470;28;20191;-67
2022/04/30 01:28:12;;;;;;;13.47;5.70;;;;;;;;;;5057796;28;20243;-66
2022/04/30 01:30:37;;;;;;;14.90;6.43;;;;;;;;;;5068974;28;20208;-66
2022/04/30 01:38:31;;;;;;;13.13;6.93;;;;;;;;;;5060079;28;20196;-66
2022/04/30 01:40:57;;;;;;;13.97;6.40;;;;;;;;;;5068024;28;20675;-67
2022/04/30 01:43:24;;;;;;;16.13;6.73;;;;;;;;;;5061635;28;20185;-67
2022/04/30 01:45:50;;;;;;;13.90;6.73;;;;;;;;;;5061097;28;20363;-67
2022/04/30 01:48:15;;;;;;;11.90;6.40;;;;;;;;;;5069035;28;20508;-66
2022/04/30 01:50:41;;;;;;;16.80;7.13;;;;;;;;;;5054038;28;20195;-67
2022/04/30 01:53:07;;;;;;;15.30;7.30;;;;;;;;;;5049989;28;20197;-66
2022/04/30 01:55:33;;;;;;;11.53;6.03;;;;;;;;;;5049923;28;20284;-67
2022/04/30 01:57:58;;;;;;;11.47;7.10;;;;;;;;;;5066221;28;20216;-66
2022/04/30 02:00:23;;;;;;;13.90;7.13;;;;;;;;;;5058794;28;20184;-66
2022/04/30 02:02:50;;;;;;;13.67;7.43;;;;;;;;;;5061733;28;20586;-67
2022/04/30 02:05:17;;;;;;;15.83;7.50;;;;;;;;;;5066658;28;20602;-67
2022/04/30 02:07:53;;;;;;;13.77;7.20;;;;;;;;;;5067424;28;20228;-67
2022/04/30 02:10:21;;;;;;;14.47;6.77;;;;;;;;;;5065480;28;20192;-67
2022/04/30 02:12:47;;;;;;;15.90;7.33;;;;;;;;;;5063305;28;20670;-67
2022/04/30 02:15:17;;;;;;;15.97;6.93;;;;;;;;;;5067830;28;20331;-67
2022/04/30 02:17:46;;;;;;;16.00;7.77;;;;;;;;;;5065656;28;20189;-66
2022/04/30 02:20:22;;;;;;;14.63;7.77;;;;;;;;;;5063512;28;20180;-66
2022/04/30 02:22:50;;;;;;;15.27;7.57;;;;;;;;;;5060263;28;20599;-66
2022/04/30 02:25:16;;;;;;;19.13;7.40;;;;;;;;;;5065233;28;20185;-67
2022/04/30 02:27:44;;;;;;;21.83;7.73;;;;;;;;;;5065462;28;20184;-67
2022/04/30 02:30:12;;;;;;;14.97;7.83;;;;;;;;;;5058692;28;20234;-67
2022/04/30 02:32:46;;;;;;;16.70;7.70;;;;;;;;;;5066195;28;20598;-66
2022/04/30 02:35:24;;;;;;;18.23;7.67;;;;;;;;;;5066458;28;20246;-66
2022/04/30 02:37:52;;;;;;;14.47;7.70;;;;;;;;;;5053788;28;20264;-66
2022/04/30 02:40:20;;;;;;;16.03;7.97;;;;;;;;;;5056525;28;20193;-67
2022/04/30 02:42:46;;;;;;;13.93;7.70;;;;;;;;;;5065360;28;20209;-67
2022/04/30 02:45:15;;;;;;;16.57;8.40;;;;;;;;;;5058609;28;20267;-66
2022/04/30 02:47:42;;;;;;;19.27;8.57;;;;;;;;;;5067093;28;20181;-66
2022/04/30 02:50:10;;;;;;;18.47;8.40;;;;;;;;;;5062350;28;20204;-67
2022/04/30 02:52:36;;;;;;;17.33;8.03;;;;;;;;;;5067524;28;20207;-67
2022/04/30 02:55:02;;;;;;;20.27;8.43;;;;;;;;;;5063659;28;20687;-67
2022/04/30 02:57:39;;;;;;;20.53;8.40;;;;;;;;;;5082007;28;20514;-67
2022/04/30 03:00:08;;;;;;;22.10;8.13;;;;;;;;;;5057442;28;20656;-67
2022/04/30 03:02:33;;;;;;;22.03;7.90;;;;;;;;;;5059507;28;20200;-67
2022/04/30 03:04:59;;;;;;;15.67;8.53;;;;;;;;;;5058391;28;20319;-67
2022/04/30 03:07:24;;;;;;;17.20;8.77;;;;;;;;;;5056149;28;20226;-66
2022/04/30 03:09:50;;;;;;;19.03;9.53;;;;;;;;;;5060889;28;20622;-67
2022/04/30 03:12:16;;;;;;;18.20;8.43;;;;;;;;;;5067394;28;20209;-67
2022/04/30 03:14:42;;;;;;;17.23;8.33;;;;;;;;;;5060877;28;20180;-66
2022/04/30 03:22:37;;;;;;;17.77;8.10;;;;;;;;;;5063743;28;20234;-67
2022/04/30 03:25:03;;;;;;;16.50;8.60;;;;;;;;;;5064938;28;20271;-68
2022/04/30 03:27:28;;;;;;;19.20;9.00;;;;;;;;;;5065963;28;20181;-66
2022/04/30 03:29:53;;;;;;;20.10;8.53;;;;;;;;;;5066755;28;20188;-68
2022/04/30 03:32:24;;;;;;;19.00;8.23;;;;;;;;;;5066293;28;20193;-67
2022/04/30 03:34:50;;;;;;;22.10;8.73;;;;;;;;;;5061287;28;20177;-67
2022/04/30 03:37:15;;;;;;;19.70;9.37;;;;;;;;;;5062345;28;20227;-67
2022/04/30 03:39:40;;;;;;;19.90;10.03;;;;;;;;;;5065122;28;20192;-67
2022/04/30 03:42:06;;;;;;;19.53;9.67;;;;;;;;;;5066399;28;20219;-67
2022/04/30 03:44:32;;;;;;;20.73;9.00;;;;;;;;;;5062459;28;20196;-67
2022/04/30 03:46:57;;;;;;;24.27;9.60;;;;;;;;;;5062193;28;20179;-67
2022/04/30 03:49:22;;;;;;;18.97;9.93;;;;;;;;;;5063910;28;20271;-68
2022/04/30 03:51:48;;;;;;;18.57;9.50;;;;;;;;;;5068762;28;20181;-68
2022/04/30 03:54:13;;;;;;;19.40;9.83;;;;;;;;;;5065410;28;20245;-68
2022/04/30 03:56:38;;;;;;;19.60;8.87;;;;;;;;;;5066747;28;20184;-68
2022/04/30 03:59:04;;;;;;;26.43;9.03;;;;;;;;;;5060687;28;20247;-67
2022/04/30 04:01:29;;;;;;;23.57;10.13;;;;;;;;;;5086526;28;20215;-68
2022/04/30 04:03:55;;;;;;;21.33;9.67;;;;;;;;;;5061850;28;20177;-67
2022/04/30 04:06:20;;;;;;;18.50;8.83;;;;;;;;;;5058573;28;20243;-67
2022/04/30 04:08:52;;;;;;;19.57;9.40;;;;;;;;;;5063199;28;20196;-67
2022/04/30 04:11:18;;;;;;;21.00;9.60;;;;;;;;;;5062952;28;20177;-67
2022/04/30 04:19:13;;;;;;;20.03;9.37;;;;;;;;;;5069836;28;20302;-67
2022/04/30 04:21:38;;;;;;;19.43;9.17;;;;;;;;;;5069746;28;20411;-66
2022/04/30 04:26:48;;;;;;;21.30;9.33;;;;;;;;;;5062761;28;20195;-67
2022/04/30 04:29:16;;;;;;;19.07;8.20;;;;;;;;;;5059013;28;20180;-66
2022/04/30 04:31:42;;;;;;;20.43;9.40;;;;;;;;;;5070564;28;20204;-66
2022/04/30 04:34:07;;;;;;;23.07;9.80;;;;;;;;;;5063938;28;20184;-66
2022/04/30 04:36:33;;;;;;;21.37;9.47;;;;;;;;;;5056972;28;20189;-67
2022/04/30 04:38:58;;;;;;;19.40;9.73;;;;;;;;;;5064741;28;20214;-67
2022/04/30 04:41:24;;;;;;;20.00;9.70;;;;;;;;;;5070120;28;20661;-68
2022/04/30 04:43:49;;;;;;;22.80;10.47;;;;;;;;;;5061642;28;20629;-67
2022/04/30 04:46:15;;;;;;;19.17;9.63;;;;;;;;;;5067780;28;20184;-67
2022/04/30 04:48:40;;;;;;;21.00;10.47;;;;;;;;;;5069094;28;20626;-67
2022/04/30 04:51:06;;;;;;;23.63;10.43;;;;;;;;;;5069260;28;20221;-67
2022/04/30 04:53:31;;;;;;;21.17;10.07;;;;;;;;;;5064083;28;20188;-68
2022/04/30 04:55:57;;;;;;;17.43;9.80;;;;;;;;;;5062764;28;20208;-68
2022/04/30 04:58:22;;;;;;;18.03;9.57;;;;;;;;;;5069361;28;20720;-67
2022/04/30 05:00:48;;;;;;;21.70;10.23;;;;;;;;;;5056757;28;20589;-67
2022/04/30 05:03:14;;;;;;;20.30;9.93;;;;;;;;;;5065913;28;20192;-67
2022/04/30 05:05:39;;;;;;;22.13;10.13;;;;;;;;;;5065672;28;20181;-67
2022/04/30 05:08:05;;;;;;;19.77;10.40;;;;;;;;;;5066410;28;20282;-68
2022/04/30 05:10:30;;;;;;;19.23;9.97;;;;;;;;;;5066850;28;20188;-67
2022/04/30 05:12:55;;;;;;;17.37;9.60;;;;;;;;;;5068442;28;20215;-67
2022/04/30 05:15:21;;;;;;;14.80;9.27;;;;;;;;;;5060184;28;20185;-67
2022/04/30 05:17:49;;;;;;;19.73;9.60;;;;;;;;;;5056751;28;20577;-67
2022/04/30 05:20:14;;;;;;;20.87;9.73;;;;;;;;;;5065354;28;20181;-67
2022/04/30 05:22:40;;;;;;;17.70;9.10;;;;;;;;;;5068350;28;20265;-67
2022/04/30 05:25:06;;;;;;;15.17;9.50;;;;;;;;;;5062419;28;20296;-67
2022/04/30 05:27:31;;;;;;;13.20;8.53;;;;;;;;;;5068737;28;20173;-67
2022/04/30 05:29:57;;;;;;;18.23;9.10;;;;;;;;;;5067945;28;20192;-67
2022/04/30 05:32:22;;;;;;;17.30;8.60;;;;;;;;;;5064713;28;20196;-66
2022/04/30 05:34:47;;;;;;;15.83;8.70;;;;;;;;;;5063662;28;20275;-67
2022/04/30 05:37:13;;;;;;;17.53;8.57;;;;;;;;;;5067241;28;20180;-66
2022/04/30 05:39:38;;;;;;;13.40;7.97;;;;;;;;;;5065968;28;20299;-67
2022/04/30 05:42:04;;;;;;;18.23;7.97;;;;;;;;;;5068516;28;20198;-66
2022/04/30 05:44:30;;;;;;;13.80;7.87;;;;;;;;;;5061525;28;20525;-66
2022/04/30 05:46:55;;;;;;;18.87;8.40;;;;;;;;;;5074218;28;20267;-67
2022/04/30 05:49:20;;;;;;;19.43;8.80;;;;;;;;;;5058005;28;20190;-67
2022/04/30 05:51:46;;;;;;;15.03;8.63;;;;;;;;;;5064212;28;20292;-67
2022/04/30 05:54:11;;;;;;;15.20;7.77;;;;;;;;;;5066950;28;20177;-67
2022/04/30 05:56:36;;;;;;;15.13;7.33;;;;;;;;;;5062682;28;20181;-67
2022/04/30 05:59:02;;;;;;;12.93;7.70;;;;;;;;;;5061473;28;20861;-67
2022/04/30 06:01:27;;;;;;;19.23;8.80;;;;;;;;;;5062690;28;20204;-67
2022/04/30 06:03:53;;;;;;;14.60;8.30;;;;;;;;;;5066797;28;20180;-67
2022/04/30 06:06:20;;;;;;;15.83;8.00;;;;;;;;;;5065486;28;20235;-67
2022/04/30 06:08:46;;;;;;;14.43;8.23;;;;;;;;;;5065984;28;20492;-66
2022/04/30 06:11:11;;;;;;;11.13;8.10;;;;;;;;;;5065590;28;20183;-66
2022/04/30 06:13:37;;;;;;;12.17;7.57;;;;;;;;;;5062334;28;20697;-67
2022/04/30 06:16:02;;;;;;;14.50;7.90;;;;;;;;;;5065423;28;20220;-66
2022/04/30 06:18:27;;;;;;;15.33;7.73;;;;;;;;;;5064904;28;20592;-67
2022/04/30 06:20:53;;;;;;;14.50;7.90;;;;;;;;;;5062358;28;20563;-66
2022/04/30 06:23:18;;;;;;;16.40;7.80;;;;;;;;;;5066769;28;20200;-67
2022/04/30 06:25:45;;;;;;;10.07;7.00;;;;;;;;;;5060657;28;20663;-67
2022/04/30 06:28:12;;;;;;;15.13;7.83;;;;;;;;;;5078914;28;20192;-67
2022/04/30 06:30:37;;;;;;;13.63;7.23;;;;;;;;;;5065030;28;20204;-67
2022/04/30 06:33:03;;;;;;;12.30;7.07;;;;;;;;;;5065453;28;20684;-67
2022/04/30 06:35:28;;;;;;;14.90;7.73;;;;;;;;;;5067342;28;20236;-67
2022/04/30 06:37:53;;;;;;;12.87;7.43;;;;;;;;;;5063791;28;20585;-67
2022/04/30 06:40:20;;;;;;;11.47;7.67;;;;;;;;;;5064433;28;20200;-67
2022/04/30 06:42:46;;;;;;;12.13;7.43;;;;;;;;;;5061547;28;20288;-68
2022/04/30 06:45:12;;;;;;;13.27;7.80;;;;;;;;;;5061863;28;20595;-68
2022/04/30 06:47:38;;;;;;;16.57;8.13;;;;;;;;;;5061789;28;20264;-68
2022/04/30 06:50:04;;;;;;;13.93;8.50;;;;;;;;;;5060509;28;20549;-67
2022/04/30 06:52:30;;;;;;;18.27;8.23;;;;;;;;;;5065492;28;20180;-66
2022/04/30 06:57:39;;;;;;;13.33;7.07;;;;;;;;;;5063623;28;20288;-67
2022/04/30 07:02:50;;;;;;;13.00;7.60;;;;;;;;;;5063760;28;20220;-67
2022/04/30 07:05:15;;;;;;;15.67;7.43;;;;;;;;;;5062381;28;20181;-66
2022/04/30 07:07:40;;;;;;;12.73;7.33;;;;;;;;;;5064660;28;20228;-67
2022/04/30 07:10:06;;;;;;;13.40;6.90;;;;;;;;;;5060201;28;20267;-67
2022/04/30 07:12:31;;;;;;;11.40;6.23;;;;;;;;;;5066183;28;20212;-67
2022/04/30 07:14:57;;;;;;;9.83;6.13;;;;;;;;;;5064483;28;20484;-68
2022/04/30 07:17:22;;;;;;;8.47;5.30;;;;;;;;;;5063417;28;20210;-67
2022/04/30 07:19:47;;;;;;;14.97;6.23;;;;;;;;;;5065960;28;20717;-67
2022/04/30 07:22:13;;;;;;;11.43;5.60;;;;;;;;;;5069504;28;20330;-68
2022/04/30 07:24:38;;;;;;;11.77;5.97;;;;;;;;;;5069637;28;20186;-67
2022/04/30 07:27:05;;;;;;;14.00;5.87;;;;;;;;;;5065638;28;20183;-67
2022/04/30 07:29:31;;;;;;;9.67;5.90;;;;;;;;;;5066432;28;20524;-67
2022/04/30 07:31:56;;;;;;;11.37;6.73;;;;;;;;;;5064608;28;20208;-68
2022/04/30 07:34:22;;;;;;;9.70;6.00;;;;;;;;;;5064761;28;20180;-68
2022/04/30 07:36:48;;;;;;;16.70;6.40;;;;;;;;;;5066430;28;20585;-67
2022/04/30 07:39:14;;;;;;;9.67;6.30;;;;;;;;;;5068510;28;20176;-67
2022/04/30 07:41:39;;;;;;;12.13;6.23;;;;;;;;;;5066364;28;20680;-67
2022/04/30 07:44:05;;;;;;;12.23;6.33;;;;;;;;;;5066272;28;20180;-67
2022/04/30 07:46:30;;;;;;;11.03;5.63;;;;;;;;;;5065795;28;20782;-67
2022/04/30 07:48:56;;;;;;;12.32;6.55;;;;;;;;;;5065662;28;20729;-67
2022/04/30 07:51:34;;;;;;;10.80;6.00;;;;;;;;;;5065099;28;20659;-67
2022/04/30 07:54:01;;;;;;;7.35;5.03;;;;;;;;;;5063000;28;20228;-67
2022/04/30 07:56:26;;;;;;;7.65;4.90;;;;;;;;;;5066593;28;20486;-67
2022/04/30 07:58:52;;;;;;;8.63;5.32;;;;;;;;;;5064646;28;20177;-67
2022/04/30 08:01:17;;;;;;;8.48;4.75;;;;;;;;;;5064163;28;20239;-67
2022/04/30 08:03:44;;;;;;;8.82;4.60;;;;;;;;;;5065777;28;20169;-66
2022/04/30 08:06:09;;;;;;;7.90;4.20;;;;;;;;;;5064778;28;20195;-67
2022/04/30 08:08:34;;;;;;;10.48;4.68;;;;;;;;;;5066159;28;20188;-67
2022/04/30 08:10:59;;;;;;;8.48;5.25;;;;;;;;;;5068258;28;20666;-67
2022/04/30 08:13:26;;;;;;;6.90;5.25;;;;;;;;;;5067685;28;20191;-68
2022/04/30 08:15:52;;;;;;;11.35;4.65;;;;;;;;;;5067056;28;20204;-72
2022/04/30 08:18:17;;;;;;;10.75;4.68;;;;;;;;;;5068266;28;20660;-67
2022/04/30 08:20:43;;;;;;;7.68;4.13;;;;;;;;;;5066251;28;20234;-68
2022/04/30 08:23:08;;;;;;;6.47;4.40;;;;;;;;;;5064643;28;20246;-68
2022/04/30 08:25:35;;;;;;;7.30;4.25;;;;;;;;;;5066537;28;20185;-67
2022/04/30 08:28:02;;;;;;;10.73;4.00;;;;;;;;;;5066701;28;20258;-68
2022/04/30 08:30:27;;;;;;;4.30;2.97;;;;;;;;;;5066293;28;20539;-67
2022/04/30 08:32:53;;;;;;;5.25;2.80;;;;;;;;;;5063940;28;20390;-67
2022/04/30 08:35:18;;;;;;;7.00;3.28;;;;;;;;;;5066094;28;20842;-68
2022/04/30 08:37:43;;;;;;;7.90;4.10;;;;;;;;;;5065161;28;20678;-68
2022/04/30 08:40:09;;;;;;;6.90;3.10;;;;;;;;;;5067007;28;20632;-68
2022/04/30 08:42:35;;;;;;;8.40;3.47;;;;;;;;;;5064831;28;20215;-67
2022/04/30 08:45:06;;;;;;;5.07;2.58;;;;;;;;;;5067055;28;20176;-68
2022/04/30 08:47:37;;;;;;;6.75;3.85;;;;;;;;;;5068155;28;20238;-68
2022/04/30 08:50:03;;;;;;;8.55;3.72;;;;;;;;;;5067332;28;20180;-68
2022/04/30 08:52:28;;;;;;;6.03;2.95;;;;;;;;;;5063283;28;20904;-68
2022/04/30 08:54:53;;;;;;;6.28;4.13;;;;;;;;;;5067208;28;20602;-68
2022/04/30 08:57:20;;;;;;;7.95;3.60;;;;;;;;;;5064507;28;20432;-69
2022/04/30 08:59:46;;;;;;;5.72;3.25;;;;;;;;;;5065053;28;20177;-67
2022/04/30 09:02:12;;;;;;;6.30;3.42;;;;;;;;;;5061561;28;20204;-68
2022/04/30 09:04:42;;;;;;;6.63;3.58;;;;;;;;;;5064929;28;20200;-68
2022/04/30 09:07:13;;;;;;;9.52;4.15;;;;;;;;;;5061916;28;20288;-68
2022/04/30 09:09:39;;;;;;;10.05;4.15;;;;;;;;;;5066054;28;20189;-68
2022/04/30 09:12:09;;;;;;;8.80;3.50;;;;;;;;;;5067266;28;20702;-66
2022/04/30 09:14:40;;;;;;;6.78;3.65;;;;;;;;;;5063200;28;20185;-68
2022/04/30 09:17:13;;;;;;;5.43;3.67;;;;;;;;;;5075433;28;20179;-67
2022/04/30 09:19:45;;;;;;;8.70;3.75;;;;;;;;;;5061188;28;20188;-67
2022/04/30 09:22:10;;;;;;;7.50;4.80;;;;;;;;;;5062568;28;20516;-67
2022/04/30 09:24:48;;;;;;;6.70;4.10;;;;;;;;;;5067029;28;20188;-67
2022/04/30 09:27:14;;;;;;;10.20;4.47;;;;;;;;;;5055897;28;20301;-67
2022/04/30 09:29:39;;;;;;;9.63;4.70;;;;;;;;;;5068115;28;20188;-67
2022/04/30 09:32:05;;;;;;;9.27;4.10;;;;;;;;;;5067625;28;20205;-67
2022/04/30 09:37:42;;;;;;;6.30;4.20;;;;;;;;;;5065916;28;20601;-68
2022/04/30 09:40:13;;;;;;;8.68;4.60;;;;;;;;;;5066859;28;20179;-68
2022/04/30 09:42:39;;;;;;;5.75;4.63;;;;;;;;;;5063284;28;20205;-66
2022/04/30 09:45:05;;;;;;;8.20;4.20;;;;;;;;;;5063313;28;20189;-66
2022/04/30 09:47:33;;;;;;;8.07;4.30;;;;;;;;;;5063813;28;20188;-66
2022/04/30 09:55:30;;;;;;;8.00;4.07;;;;;;;;;;5068327;28;20334;-66
2022/04/30 09:57:57;;;;;;;7.85;4.45;;;;;;;;;;5065422;28;20177;-66
2022/04/30 10:00:22;;;;;;;6.65;3.67;;;;;;;;;;5062773;28;20204;-67
2022/04/30 10:02:57;;;;;;;4.80;3.72;;;;;;;;;;5065024;28;20547;-67
2022/04/30 10:05:24;;;;;;;8.40;3.97;;;;;;;;;;5064860;28;20188;-66
2022/04/30 10:07:50;;;;;;;6.70;4.03;;;;;;;;;;5061850;28;20228;-67
2022/04/30 10:10:20;;;;;;;3.90;3.20;;;;;;;;;;5065973;28;20176;-66
2022/04/30 10:13:02;;;;;;;5.22;3.83;;;;;;;;;;5063415;28;20177;-67
2022/04/30 10:15:39;;;;;;;4.38;2.90;;;;;;;;;;5065719;28;20180;-67
2022/04/30 10:18:07;;;;;;;4.28;2.90;;;;;;;;;;5064571;28;20195;-68
2022/04/30 10:20:34;;;;;;;7.07;3.13;;;;;;;;;;5062568;28;20181;-66
2022/04/30 10:23:00;;;;;;;4.28;3.13;;;;;;;;;;5063345;28;20212;-67
2022/04/30 10:25:36;;;;;;;6.13;3.53;;;;;;;;;;5065913;28;20276;-67
2022/04/30 10:28:10;;;;;;;4.07;2.78;;;;;;;;;;5065760;28;20533;-67
2022/04/30 10:30:38;;;;;;;4.85;3.25;;;;;;;;;;5066522;28;20204;-67
2022/04/30 10:33:06;;;;;;;3.80;3.15;;;;;;;;;;5067310;28;20180;-67
2022/04/30 10:35:34;;;;;;;4.60;3.20;;;;;;;;;;5066888;28;20208;-67
2022/04/30 10:38:07;;;;;;;5.85;3.40;;;;;;;;;;5064960;28;20185;-67
2022/04/30 10:40:45;;;;;;;6.07;3.40;;;;;;;;;;5065418;28;20188;-67
2022/04/30 10:43:35;;;;;;;6.18;3.58;;;;;;;;;;5060882;28;20426;-67
2022/04/30 10:46:03;;;;;;;6.78;3.15;;;;;;;;;;5062689;28;20169;-67
2022/04/30 10:48:29;;;;;;;5.72;3.17;;;;;;;;;;5062203;28;20210;-67
2022/04/30 10:51:09;;;;;;;4.18;3.03;;;;;;;;;;5065224;28;20217;-67
2022/04/30 10:53:38;;;;;;;4.70;3.30;;;;;;;;;;5066128;28;20644;-67
2022/04/30 10:56:05;;;;;;;7.07;3.33;;;;;;;;;;5067842;28;20176;-67
2022/04/30 10:58:31;;;;;;;8.13;3.70;;;;;;;;;;5063394;28;20211;-67
2022/04/30 11:00:57;;;;;;;4.63;3.38;;;;;;;;;;5056774;28;20191;-67
2022/04/30 11:03:30;;;;;;;6.15;3.42;;;;;;;;;;5066523;28;20180;-67
2022/04/30 11:05:56;;;;;;;7.32;3.05;;;;;;;;;;5066151;28;20206;-67
2022/04/30 11:08:22;;;;;;;7.78;4.15;;;;;;;;;;5063049;28;20192;-68
2022/04/30 11:10:55;;;;;;;9.13;4.78;;;;;;;;;;5062583;28;20521;-68
2022/04/30 11:13:21;;;;;;;9.38;4.90;;;;;;;;;;5062358;28;20266;-69
2022/04/30 11:15:47;;;;;;;10.70;4.95;;;;;;;;;;5062524;28;20189;-68
2022/04/30 11:18:17;;;;;;;8.30;5.40;;;;;;;;;;5060967;28;20531;-68
2022/04/30 11:20:42;;;;;;;10.02;4.60;;;;;;;;;;5059362;28;20272;-68
2022/04/30 11:23:08;;;;;;;7.03;5.13;;;;;;;;;;5051544;28;20318;-68
2022/04/30 11:25:37;;;;;;;8.30;5.07;;;;;;;;;;5061234;28;20502;-67
2022/04/30 11:28:07;;;;;;;8.57;4.88;;;;;;;;;;5054025;28;20181;-68
2022/04/30 11:30:36;;;;;;;10.32;5.72;;;;;;;;;;5063526;28;20184;-66
2022/04/30 11:33:02;;;;;;;6.90;4.88;;;;;;;;;;5058510;28;20181;-69
2022/04/30 11:35:27;;;;;;;7.05;5.10;;;;;;;;;;5064769;28;20189;-67
2022/04/30 11:37:53;;;;;;;9.48;4.95;;;;;;;;;;5058660;28;20173;-69
2022/04/30 11:40:22;;;;;;;12.20;5.20;;;;;;;;;;5066254;28;20192;-68
2022/04/30 11:43:01;;;;;;;11.52;5.00;;;;;;;;;;5056481;28;20215;-67
2022/04/30 11:45:31;;;;;;;7.60;4.45;;;;;;;;;;5066309;28;20212;-67
2022/04/30 11:47:57;;;;;;;10.00;4.93;;;;;;;;;;5063442;28;20178;-67
2022/04/30 11:50:23;;;;;;;7.30;4.80;;;;;;;;;;5067100;28;20180;-67
2022/04/30 11:52:50;;;;;;;9.07;5.13;;;;;;;;;;5059458;28;20276;-69
2022/04/30 11:55:16;;;;;;;7.13;5.10;;;;;;;;;;5067449;28;20295;-68
2022/04/30 11:57:43;;;;;;;9.07;5.15;;;;;;;;;;5065120;28;20172;-68
2022/04/30 12:00:13;;;;;;;8.38;5.60;;;;;;;;;;5067851;28;20216;-68
2022/04/30 12:02:44;;;;;;;6.32;4.43;;;;;;;;;;5062784;28;20205;-68
2022/04/30 12:05:10;;;;;;;8.50;4.93;;;;;;;;;;5059327;28;20185;-68
2022/04/30 12:07:37;;;;;;;8.82;4.50;;;;;;;;;;5070177;28;20542;-68
2022/04/30 12:10:13;;;;;;;10.65;5.25;;;;;;;;;;5071004;28;20199;-67
2022/04/30 12:12:39;;;;;;;9.30;4.70;;;;;;;;;;5064516;28;20255;-68
2022/04/30 12:15:15;;;;;;;11.45;5.00;;;;;;;;;;5065007;28;20633;-68
2022/04/30 12:17:41;;;;;;;11.60;4.78;;;;;;;;;;5070224;28;20185;-67
2022/04/30 12:25:47;;;;;;;5.55;4.18;;;;;;;;;;5066906;28;20550;-67
2022/04/30 12:28:12;;;;;;;7.13;4.43;;;;;;;;;;5071212;28;20185;-67
2022/04/30 12:30:52;;;;;;;9.30;4.85;;;;;;;;;;5070334;28;20757;-67
2022/04/30 12:33:18;;;;;;;5.47;4.28;;;;;;;;;;5063673;28;20325;-67
2022/04/30 12:35:44;;;;;;;7.65;4.70;;;;;;;;;;5068130;28;20312;-67
2022/04/30 12:38:11;;;;;;;11.07;4.60;;;;;;;;;;5066393;28;20668;-67
2022/04/30 12:40:40;;;;;;;10.90;4.82;;;;;;;;;;5070404;28;20326;-67
2022/04/30 12:43:05;;;;;;;8.63;5.13;;;;;;;;;;5064343;28;20215;-67
2022/04/30 12:45:31;;;;;;;8.82;4.72;;;;;;;;;;5085533;28;20180;-67
2022/04/30 12:47:57;;;;;;;12.00;4.82;;;;;;;;;;5068225;28;20185;-67
2022/04/30 12:50:24;;;;;;;10.68;4.90;;;;;;;;;;5069434;28;20187;-68
2022/04/30 12:52:50;;;;;;;9.75;4.88;;;;;;;;;;5067433;28;20183;-68
2022/04/30 12:55:18;;;;;;;8.50;4.93;;;;;;;;;;5069282;28;20180;-68
2022/04/30 12:57:44;;;;;;;6.82;4.95;;;;;;;;;;5068965;28;20188;-67
2022/04/30 13:00:11;;;;;;;7.20;4.57;;;;;;;;;;5070344;28;20180;-69
2022/04/30 13:02:38;;;;;;;11.40;5.15;;;;;;;;;;5068548;28;20215;-68
2022/04/30 13:05:05;;;;;;;9.77;5.03;;;;;;;;;;5068351;28;20187;-67
2022/04/30 13:07:31;;;;;;;11.98;5.40;;;;;;;;;;5063595;28;20727;-67
2022/04/30 13:15:27;;;;;;;6.65;5.10;;;;;;;;;;5068089;28;20314;-69
2022/04/30 13:17:55;;;;;;;10.95;5.35;;;;;;;;;;5061673;28;20190;-67
2022/04/30 13:20:21;;;;;;;8.05;5.07;;;;;;;;;;5068056;28;20526;-68
2022/04/30 13:22:46;;;;;;;10.80;5.47;;;;;;;;;;5063811;28;20233;-67
2022/04/30 13:25:12;;;;;;;11.88;5.65;;;;;;;;;;5083370;28;20190;-67
2022/04/30 13:27:37;;;;;;;6.63;5.05;;;;;;;;;;5066333;28;20176;-67
2022/04/30 13:30:03;;;;;;;6.90;4.72;;;;;;;;;;5066482;28;20181;-67
2022/04/30 13:32:28;;;;;;;10.35;5.43;;;;;;;;;;5064860;28;20215;-67
2022/04/30 13:34:53;;;;;;;7.47;4.70;;;;;;;;;;5067029;28;20177;-68
2022/04/30 13:37:19;;;;;;;9.02;5.15;;;;;;;;;;5067546;28;20264;-68
2022/04/30 13:39:44;;;;;;;6.88;5.07;;;;;;;;;;5067260;28;20176;-67
2022/04/30 13:42:09;;;;;;;11.10;5.38;;;;;;;;;;5067617;28;20207;-68
2022/04/30 13:44:35;;;;;;;9.10;4.75;;;;;;;;;;5066452;28;20272;-68
2022/04/30 13:47:00;;;;;;;9.77;4.97;;;;;;;;;;5066535;28;20737;-68
2022/04/30 13:49:26;;;;;;;8.15;4.82;;;;;;;;;;5067405;28;20176;-68
2022/04/30 13:51:51;;;;;;;9.80;5.15;;;;;;;;;;5067592;28;20188;-68
2022/04/30 13:54:16;;;;;;;7.93;4.78;;;;;;;;;;5067057;28;20173;-68
2022/04/30 13:56:43;;;;;;;7.50;4.88;;;;;;;;;;5067280;28;20545;-68
2022/04/30 13:59:10;;;;;;;6.18;4.70;;;;;;;;;;5065914;28;20183;-68
2022/04/30 14:01:36;;;;;;;7.50;4.95;;;;;;;;;;5067844;28;20204;-67
2022/04/30 14:04:02;;;;;;;6.47;4.70;;;;;;;;;;5064838;28;20903;-67
2022/04/30 14:06:28;;;;;;;9.05;4.93;;;;;;;;;;5066143;28;20229;-68
2022/04/30 14:08:53;;;;;;;9.40;5.40;;;;;;;;;;5067415;28;20694;-68
2022/04/30 14:11:19;;;;;;;9.23;5.13;;;;;;;;;;5067257;28;20195;-66
2022/04/30 14:16:30;;;;;;;8.88;5.13;;;;;;;;;;5066493;28;20663;-67
2022/04/30 14:18:56;;;;;;;7.25;5.00;;;;;;;;;;5064667;28;20273;-67
2022/04/30 14:21:22;;;;;;;11.95;5.70;;;;;;;;;;5066513;28;20460;-67
2022/04/30 14:23:47;;;;;;;23.23;6.88;;;;;;;;;;5062049;28;20590;-67
2022/04/30 14:26:14;;;;;;;8.48;5.40;;;;;;;;;;5064003;28;20189;-68
2022/04/30 14:28:40;;;;;;;12.60;5.20;;;;;;;;;;5066466;28;20825;-67
2022/04/30 14:31:05;;;;;;;6.60;4.95;;;;;;;;;;5067064;28;20352;-67
2022/04/30 14:33:31;;;;;;;11.27;5.50;;;;;;;;;;5062894;28;20181;-67
2022/04/30 14:35:57;;;;;;;8.38;5.35;;;;;;;;;;5066598;28;20180;-67
2022/04/30 14:38:22;;;;;;;6.22;4.85;;;;;;;;;;5079535;28;20334;-67
2022/04/30 14:40:48;;;;;;;8.05;5.22;;;;;;;;;;5066621;28;20782;-67
2022/04/30 14:43:13;;;;;;;7.68;5.63;;;;;;;;;;5061065;28;20204;-67
2022/04/30 14:45:44;;;;;;;7.75;5.25;;;;;;;;;;5063901;28;20571;-67
2022/04/30 14:48:09;;;;;;;11.68;5.60;;;;;;;;;;5062586;28;20191;-68
2022/04/30 14:50:35;;;;;;;7.53;4.90;;;;;;;;;;5066951;28;20184;-67
2022/04/30 14:53:00;;;;;;;11.55;5.75;;;;;;;;;;5064449;28;20174;-69
2022/04/30 14:55:28;;;;;;;10.25;5.32;;;;;;;;;;5063204;28;20242;-67
2022/04/30 14:57:54;;;;;;;8.27;5.45;;;;;;;;;;5066252;28;20188;-68
2022/04/30 15:00:19;;;;;;;11.68;5.03;;;;;;;;;;5065950;28;20195;-69
2022/04/30 15:02:45;;;;;;;8.95;4.90;;;;;;;;;;5063857;28;20205;-67
2022/04/30 15:05:10;;;;;;;8.80;5.50;;;;;;;;;;5067525;28;20233;-67
2022/04/30 15:07:36;;;;;;;7.78;4.88;;;;;;;;;;5066899;28;20735;-67
2022/04/30 15:10:03;;;;;;;8.65;5.32;;;;;;;;;;5064924;28;20188;-67
2022/04/30 15:12:29;;;;;;;8.07;5.35;;;;;;;;;;5063100;28;20181;-68
2022/04/30 15:14:54;;;;;;;8.02;4.85;;;;;;;;;;5067116;28;20442;-67
2022/04/30 15:17:20;;;;;;;9.82;4.25;;;;;;;;;;5064529;28;20219;-67
2022/04/30 15:19:45;;;;;;;8.43;4.97;;;;;;;;;;5063267;28;20636;-67
2022/04/30 15:22:11;;;;;;;8.77;4.97;;;;;;;;;;5065412;28;20219;-67